Main page
METAR-TAF:

METAR-TAF

Airports :

Simón Bolívar International Airport

Caracas, Venezuela

latitude: 10-36N, longitude: 066-59W, elevation: 43 m

Current weather observation

The report was made 12 minutes ago, at 22:03 UTC
Wind 8 kt from the East/Northeast
Temperature 30°C
Humidity 62%
Pressure 1013 hPa

METAR: SVMI 202203Z AUTO 06008KT NCD 30/22 Q1013

Time: 18:15 (22:15 UTC)

Forecast

The report was made 6 hours and 15 minutes ago, at 16:00 UTC
Forecast valid from 20 at 18 UTC to 21 at 18 UTC
Wind 6 kt from the East
Visibility 10 km or more
Scattered clouds at a height of 1600 ft
Temporary
from 20 at 19 UTC to 20 at 22 UTC
Wind 6 kt from the East
Visibility 10 km or more
Scattered clouds at a height of 1300 ft
Scattered clouds at a height of 7000 ft

TAF: SVMI 201600Z 2018/2118 09006KT 9999 SCT016 TX35/2018Z TN24/2107Z TEMPO 2019/2022 08006KT 9999 SCT013 SCT070

Weather observations and forecasts of more than 4000 airports (METAR and TAF reports).

The available stations are represented by yellow and red dots on the map.

Hover mouse over dot to see the name of the station.

Then click to see weather observations and forecasts.

To change the map : click on the green buttons with a black cross to zoom in, on the green button with a dash to zoom out, or on the green arrows for adjacent maps.


METAR-TAF: